createdAt,value
2022-10-10T00:00:26.479Z,17.70
2022-10-10T00:02:54.615Z,17.80
2022-10-10T00:05:22.689Z,16.57
2022-10-10T00:07:50.852Z,17.10
2022-10-10T00:10:19.237Z,16.13
2022-10-10T00:12:49.119Z,15.43
2022-10-10T00:15:17.706Z,15.67
2022-10-10T00:17:45.846Z,16.80
2022-10-10T00:20:14.247Z,12.70
2022-10-10T00:22:42.435Z,16.83
2022-10-10T00:25:11.012Z,14.93
2022-10-10T00:27:39.365Z,17.63
2022-10-10T00:30:10.329Z,16.37
2022-10-10T00:32:38.474Z,13.93
2022-10-10T00:35:07.281Z,12.27
2022-10-10T00:37:35.460Z,14.13
2022-10-10T00:40:03.975Z,17.67
2022-10-10T00:42:32.063Z,16.53
2022-10-10T00:45:24.616Z,14.93
2022-10-10T00:47:53.492Z,14.17
2022-10-10T00:50:21.566Z,14.57
2022-10-10T00:52:50.063Z,15.60
2022-10-10T00:55:18.490Z,16.13
2022-10-10T00:57:46.724Z,15.33
2022-10-10T01:00:15.300Z,14.83
2022-10-10T01:02:44.792Z,17.77
2022-10-10T01:05:12.926Z,13.57
2022-10-10T01:07:41.119Z,13.53
2022-10-10T01:10:12.131Z,17.13
2022-10-10T01:12:50.155Z,14.83
2022-10-10T01:15:21.938Z,15.10
2022-10-10T01:17:54.411Z,15.10
2022-10-10T01:20:51.272Z,13.13
2022-10-10T01:23:40.308Z,15.43
2022-10-10T01:26:19.161Z,13.40
2022-10-10T01:28:50.833Z,14.07
2022-10-10T01:31:22.596Z,18.67
2022-10-10T01:34:08.796Z,19.17
2022-10-10T01:36:39.942Z,15.77
2022-10-10T01:39:10.590Z,17.83
2022-10-10T01:41:40.378Z,16.50
2022-10-10T01:44:09.967Z,17.30
2022-10-10T01:46:38.063Z,16.97
2022-10-10T01:49:06.159Z,14.03
2022-10-10T01:51:44.716Z,16.73
2022-10-10T01:54:19.220Z,13.17
2022-10-10T01:56:49.581Z,17.17
2022-10-10T01:59:27.465Z,15.13
2022-10-10T02:01:56.654Z,14.40
2022-10-10T02:04:37.850Z,14.00
2022-10-10T02:07:08.597Z,12.73
2022-10-10T02:09:38.073Z,15.17
2022-10-10T02:12:06.329Z,18.53
2022-10-10T02:14:38.931Z,10.80
2022-10-10T02:17:07.121Z,11.63
2022-10-10T02:19:35.289Z,13.10
2022-10-10T02:22:03.430Z,12.27
2022-10-10T02:24:31.589Z,11.33
2022-10-10T02:27:02.646Z,14.07
2022-10-10T02:29:32.474Z,11.63
2022-10-10T02:32:04.955Z,13.90
2022-10-10T02:34:35.232Z,13.37
2022-10-10T02:37:04.840Z,9.80
2022-10-10T02:39:34.864Z,10.53
2022-10-10T02:42:03.552Z,10.30
2022-10-10T02:44:31.703Z,12.70
2022-10-10T02:47:00.139Z,11.60
2022-10-10T02:49:30.238Z,10.23
2022-10-10T02:51:58.395Z,13.80
2022-10-10T02:54:26.794Z,10.67
2022-10-10T02:56:54.952Z,13.30
2022-10-10T02:59:23.064Z,11.70
2022-10-10T03:01:51.199Z,10.00
2022-10-10T03:04:19.330Z,11.60
2022-10-10T03:06:48.977Z,13.17
2022-10-10T03:09:17.075Z,8.93
2022-10-10T03:11:45.381Z,10.10
2022-10-10T03:14:13.504Z,12.63
2022-10-10T03:16:41.729Z,11.20
2022-10-10T03:19:09.990Z,11.90
2022-10-10T03:21:38.155Z,10.60
2022-10-10T03:24:08.109Z,11.07
2022-10-10T03:26:36.266Z,11.17
2022-10-10T03:29:04.604Z,10.63
2022-10-10T03:31:32.772Z,12.10
2022-10-10T03:34:00.943Z,10.70
2022-10-10T03:36:30.871Z,9.37
2022-10-10T03:38:58.980Z,10.97
2022-10-10T03:41:28.542Z,10.00
2022-10-10T03:43:57.281Z,9.23
2022-10-10T03:46:25.505Z,9.57
2022-10-10T03:48:53.679Z,8.03
2022-10-10T03:51:21.925Z,9.30
2022-10-10T03:53:50.074Z,9.60
2022-10-10T03:56:18.301Z,7.87
2022-10-10T03:58:47.853Z,11.37
2022-10-10T04:01:16.114Z,8.57
2022-10-10T04:03:47.537Z,11.23
2022-10-10T04:06:18.201Z,9.70
2022-10-10T04:08:46.304Z,10.03
2022-10-10T04:11:14.708Z,7.53
2022-10-10T04:13:42.849Z,11.77
2022-10-10T04:16:12.337Z,9.37
2022-10-10T04:18:40.470Z,9.97
2022-10-10T04:21:08.578Z,9.10
2022-10-10T04:23:36.737Z,8.03
2022-10-10T04:26:04.813Z,10.10
2022-10-10T04:28:33.038Z,7.80
2022-10-10T04:31:01.165Z,8.00
2022-10-10T04:33:30.698Z,10.90
2022-10-10T04:35:58.891Z,9.33
2022-10-10T04:38:27.113Z,9.73
2022-10-10T04:40:55.418Z,7.80
2022-10-10T04:43:23.601Z,11.53
2022-10-10T04:45:51.738Z,8.67
2022-10-10T04:48:19.896Z,8.63
2022-10-10T04:50:53.860Z,10.17
2022-10-10T04:53:22.019Z,8.37
2022-10-10T04:55:50.143Z,8.47
2022-10-10T04:58:18.535Z,9.40
2022-10-10T05:00:46.821Z,9.27
2022-10-10T05:03:14.997Z,7.70
2022-10-10T05:05:43.159Z,6.50
2022-10-10T05:08:12.643Z,7.10
2022-10-10T05:10:40.816Z,9.00
2022-10-10T05:13:09.016Z,9.07
2022-10-10T05:15:37.145Z,11.70
2022-10-10T05:18:05.616Z,8.80
2022-10-10T05:20:33.823Z,6.97
2022-10-10T05:23:02.017Z,8.13
2022-10-10T05:25:31.502Z,7.53
2022-10-10T05:27:59.676Z,7.57
2022-10-10T05:30:27.803Z,6.47
2022-10-10T05:32:56.264Z,10.10
2022-10-10T05:35:24.418Z,9.70
2022-10-10T05:37:52.561Z,11.13
2022-10-10T05:40:20.682Z,10.20
2022-10-10T05:42:50.572Z,8.20
2022-10-10T05:45:19.019Z,10.03
2022-10-10T05:47:47.146Z,9.17
2022-10-10T05:50:24.145Z,7.80
2022-10-10T05:52:52.518Z,9.33
2022-10-10T05:55:20.997Z,7.90
2022-10-10T05:57:50.573Z,9.47
2022-10-10T06:00:18.859Z,6.93
2022-10-10T06:02:47.017Z,8.77
2022-10-10T06:05:15.202Z,7.13
2022-10-10T06:08:03.548Z,8.93
2022-10-10T06:10:31.506Z,8.97
2022-10-10T06:13:01.302Z,11.53
2022-10-10T06:15:29.456Z,7.63
2022-10-10T06:17:57.686Z,8.17
2022-10-10T06:20:25.789Z,6.63
2022-10-10T06:22:54.230Z,7.83
2022-10-10T06:25:39.530Z,6.50
2022-10-10T06:28:11.231Z,8.17
2022-10-10T06:30:41.869Z,8.17
2022-10-10T06:33:10.274Z,8.80
2022-10-10T06:35:42.186Z,5.73
2022-10-10T06:38:10.394Z,6.77
2022-10-10T06:40:38.487Z,8.73
2022-10-10T06:43:10.513Z,7.40
2022-10-10T06:45:40.095Z,5.67
2022-10-10T06:48:08.713Z,8.60
2022-10-10T06:50:36.896Z,7.17
2022-10-10T06:53:05.102Z,7.87
2022-10-10T06:55:33.320Z,84.20
2022-10-10T06:58:01.458Z,10.27
2022-10-10T07:00:29.597Z,7.97
2022-10-10T07:02:59.187Z,11.60
2022-10-10T07:05:27.235Z,8.63
2022-10-10T07:07:55.330Z,10.77
2022-10-10T07:10:23.572Z,9.33
2022-10-10T07:12:51.814Z,5.37
2022-10-10T07:15:19.964Z,5.40
2022-10-10T07:17:54.167Z,5.27
2022-10-10T07:20:23.952Z,11.20
2022-10-10T07:23:07.016Z,7.47
2022-10-10T07:25:35.151Z,11.50
2022-10-10T07:28:03.269Z,23.83
2022-10-10T07:30:31.503Z,14.67
2022-10-10T07:32:59.537Z,9.17
2022-10-10T07:35:29.198Z,7.90
2022-10-10T07:37:57.343Z,6.23
2022-10-10T07:40:25.442Z,6.83
2022-10-10T07:42:53.829Z,6.13
2022-10-10T07:45:22.188Z,7.97
2022-10-10T07:47:50.460Z,5.93
2022-10-10T07:50:18.887Z,5.40
2022-10-10T07:52:48.342Z,6.57
2022-10-10T07:55:16.405Z,5.37
2022-10-10T07:57:44.500Z,6.73
2022-10-10T08:00:13.712Z,5.30
2022-10-10T08:02:42.515Z,7.07
2022-10-10T08:05:12.273Z,7.13
2022-10-10T08:07:40.330Z,7.93
2022-10-10T08:10:11.028Z,7.80
2022-10-10T08:12:39.176Z,6.90
2022-10-10T08:15:08.165Z,4.13
2022-10-10T08:17:36.325Z,5.40
2022-10-10T08:20:04.439Z,6.83
2022-10-10T08:22:32.486Z,11.83
2022-10-10T08:25:00.728Z,7.67
2022-10-10T08:27:30.140Z,5.53
2022-10-10T08:29:58.181Z,6.03
2022-10-10T08:32:26.374Z,7.33
2022-10-10T08:34:54.435Z,6.23
2022-10-10T08:37:27.029Z,5.37
2022-10-10T08:39:57.767Z,7.50
2022-10-10T08:42:29.460Z,7.03
2022-10-10T08:45:00.537Z,6.07
2022-10-10T08:47:33.541Z,6.30
2022-10-10T08:50:02.956Z,5.17
2022-10-10T08:52:33.274Z,8.93
2022-10-10T08:55:02.407Z,5.07
2022-10-10T08:57:33.525Z,9.77
2022-10-10T09:00:03.344Z,6.97
2022-10-10T09:02:53.183Z,5.67
2022-10-10T09:05:29.120Z,4.70
2022-10-10T09:08:17.699Z,5.30
2022-10-10T09:10:50.371Z,7.53
2022-10-10T09:13:25.585Z,5.13
2022-10-10T09:15:56.813Z,11.23
2022-10-10T09:18:32.273Z,7.83
2022-10-10T09:21:03.325Z,5.27
2022-10-10T09:23:33.512Z,4.97
2022-10-10T09:26:05.215Z,5.07
2022-10-10T09:28:40.287Z,6.17
2022-10-10T09:31:10.040Z,8.03
2022-10-10T09:33:39.808Z,5.80
2022-10-10T09:36:10.964Z,6.37
2022-10-10T09:38:40.123Z,4.17
2022-10-10T09:41:12.965Z,4.60
2022-10-10T09:43:42.405Z,5.13
2022-10-10T09:46:10.845Z,7.03
2022-10-10T09:48:39.415Z,6.93
2022-10-10T09:51:09.768Z,8.47
2022-10-10T09:53:37.971Z,6.53
2022-10-10T09:56:06.784Z,6.40
2022-10-10T09:58:37.028Z,5.30
2022-10-10T10:01:18.818Z,4.60
2022-10-10T10:04:17.187Z,4.27
2022-10-10T10:06:53.805Z,5.57
2022-10-10T10:09:22.975Z,7.67
2022-10-10T10:11:56.004Z,5.43
2022-10-10T10:14:27.034Z,5.07
2022-10-10T10:16:57.522Z,5.80
2022-10-10T10:19:31.560Z,5.13
2022-10-10T10:21:59.604Z,6.00
2022-10-10T10:24:32.554Z,4.10
2022-10-10T10:27:09.785Z,5.47
2022-10-10T10:29:38.047Z,4.90
2022-10-10T10:32:12.542Z,4.07
2022-10-10T10:34:54.464Z,6.50
2022-10-10T10:37:23.360Z,6.17
2022-10-10T10:40:04.547Z,3.93
2022-10-10T10:42:41.123Z,5.43
2022-10-10T10:45:12.187Z,6.97
2022-10-10T10:47:45.395Z,6.77
2022-10-10T10:50:26.196Z,6.57
2022-10-10T10:52:58.778Z,5.43
2022-10-10T10:55:32.954Z,4.63
2022-10-10T11:01:27.965Z,3.57
2022-10-10T11:05:16.680Z,4.13
2022-10-10T11:07:13.716Z,9.40
2022-10-10T11:09:56.117Z,7.80
2022-10-10T11:12:35.115Z,8.37
2022-10-10T11:15:04.407Z,5.17
2022-10-10T11:17:37.345Z,6.53
2022-10-10T11:20:08.455Z,4.43
2022-10-10T11:22:37.780Z,4.50
2022-10-10T11:25:08.326Z,6.30
2022-10-10T11:27:39.696Z,6.67
2022-10-10T11:30:15.950Z,4.87
2022-10-10T11:32:48.619Z,9.37
2022-10-10T11:35:27.381Z,4.93
2022-10-10T11:37:58.801Z,4.03
2022-10-10T11:40:38.099Z,5.63
2022-10-10T11:43:07.348Z,4.77
2022-10-10T11:45:36.782Z,5.33
2022-10-10T11:48:13.745Z,7.33
2022-10-10T11:50:43.987Z,5.90
2022-10-10T11:53:17.041Z,5.57
2022-10-10T11:55:46.622Z,8.03
2022-10-10T11:58:33.538Z,4.43
2022-10-10T12:01:04.718Z,6.93
2022-10-10T12:03:32.986Z,4.20
2022-10-10T12:06:05.182Z,4.00
2022-10-10T12:08:36.110Z,7.97
2022-10-10T12:11:08.808Z,4.67
2022-10-10T12:13:38.137Z,5.93
2022-10-10T12:16:08.134Z,3.93
2022-10-10T12:18:41.086Z,4.70
2022-10-10T12:21:11.411Z,4.17
2022-10-10T12:23:41.191Z,5.07
2022-10-10T12:26:14.414Z,4.40
2022-10-10T12:29:01.336Z,6.83
2022-10-10T12:31:31.083Z,9.03
2022-10-10T12:34:04.303Z,7.47
2022-10-10T12:37:21.485Z,5.47
2022-10-10T12:40:04.286Z,6.47
2022-10-10T12:42:33.167Z,5.60
2022-10-10T12:45:01.275Z,5.67
2022-10-10T12:48:03.867Z,4.97
2022-10-10T12:50:32.622Z,5.73
2022-10-10T12:53:02.761Z,4.57
2022-10-10T12:55:32.403Z,6.30
2022-10-10T12:58:02.048Z,5.90
2022-10-10T13:00:37.406Z,8.03
2022-10-10T13:03:10.778Z,6.13
2022-10-10T13:05:40.695Z,5.03
2022-10-10T13:08:13.361Z,4.40
2022-10-10T13:10:41.456Z,8.30
2022-10-10T13:13:17.778Z,7.37
2022-10-10T13:15:52.491Z,5.10
2022-10-10T13:18:34.640Z,8.33
2022-10-10T13:21:03.437Z,5.43
2022-10-10T13:23:33.035Z,6.63
2022-10-10T13:26:01.086Z,7.03
2022-10-10T13:28:29.208Z,4.77
2022-10-10T13:30:57.315Z,5.20
2022-10-10T13:33:29.665Z,6.17
2022-10-10T13:35:57.698Z,6.20
2022-10-10T13:38:25.909Z,4.00
2022-10-10T13:40:55.430Z,6.10
2022-10-10T13:43:24.703Z,4.80
2022-10-10T13:45:57.497Z,7.57
2022-10-10T13:48:29.745Z,8.47
2022-10-10T13:51:03.409Z,8.03
2022-10-10T13:53:48.717Z,5.20
2022-10-10T13:56:21.379Z,6.50
2022-10-10T13:58:50.775Z,6.63
2022-10-10T14:01:37.724Z,5.87
2022-10-10T14:04:16.603Z,7.67
2022-10-10T14:06:51.861Z,5.30
2022-10-10T14:09:24.017Z,6.27
2022-10-10T14:11:53.747Z,4.73
2022-10-10T14:14:22.860Z,4.97
2022-10-10T14:16:59.976Z,13.00
2022-10-10T14:19:28.017Z,8.13
2022-10-10T14:21:56.171Z,5.90
2022-10-10T14:24:25.310Z,5.63
2022-10-10T14:26:54.874Z,4.50
2022-10-10T14:29:23.103Z,4.27
2022-10-10T14:31:51.173Z,4.77
2022-10-10T14:34:19.236Z,4.33
2022-10-10T14:36:48.800Z,5.83
2022-10-10T14:39:17.048Z,5.53
2022-10-10T14:41:45.345Z,5.30
2022-10-10T14:44:14.787Z,9.13
2022-10-10T14:46:42.936Z,4.30
2022-10-10T14:49:16.476Z,5.50
2022-10-10T14:51:44.655Z,4.47
2022-10-10T14:54:14.023Z,4.77
2022-10-10T14:57:06.611Z,5.10
2022-10-10T14:59:46.450Z,6.43
2022-10-10T15:02:19.081Z,6.97
2022-10-10T15:04:47.245Z,5.53
2022-10-10T15:07:15.887Z,7.23
2022-10-10T15:10:09.660Z,5.13
2022-10-10T15:12:32.918Z,6.00
2022-10-10T15:15:02.393Z,5.40
2022-10-10T15:17:33.744Z,11.97
2022-10-10T15:20:01.952Z,5.97
2022-10-10T15:22:30.173Z,5.60
2022-10-10T15:24:58.203Z,3.97
2022-10-10T15:27:28.047Z,7.17
2022-10-10T15:29:56.140Z,5.27
2022-10-10T15:32:25.664Z,4.57
2022-10-10T15:34:53.709Z,6.33
2022-10-10T15:37:21.960Z,4.60
2022-10-10T15:39:50.026Z,6.23
2022-10-10T15:45:06.692Z,6.77
2022-10-10T15:47:36.204Z,7.87
2022-10-10T15:50:04.494Z,7.83
2022-10-10T15:52:32.718Z,4.93
2022-10-10T15:55:00.831Z,5.40
2022-10-10T15:57:29.000Z,6.03
2022-10-10T15:59:17.840Z,7.10
2022-10-10T15:59:57.208Z,8.47
2022-10-10T16:02:25.332Z,8.63
2022-10-10T16:04:54.781Z,7.10
2022-10-10T16:07:29.436Z,6.60
2022-10-10T16:09:59.113Z,11.07
2022-10-10T16:12:27.299Z,9.53
2022-10-10T16:14:55.552Z,5.60
2022-10-10T16:17:24.009Z,8.53
2022-10-10T16:19:52.482Z,8.80
2022-10-10T16:22:21.998Z,7.50
2022-10-10T16:25:10.358Z,6.50
2022-10-10T16:27:38.652Z,7.23
2022-10-10T16:30:07.841Z,7.23
2022-10-10T16:32:41.781Z,9.93
2022-10-10T16:35:11.078Z,8.57
2022-10-10T16:37:40.667Z,8.63
2022-10-10T16:40:09.859Z,7.63
2022-10-10T16:42:37.963Z,8.90
2022-10-10T16:45:06.959Z,11.03
2022-10-10T16:47:35.183Z,9.93
2022-10-10T16:50:03.324Z,9.27
2022-10-10T16:52:33.137Z,8.33
2022-10-10T16:55:02.970Z,10.87
2022-10-10T16:57:31.138Z,10.97
2022-10-10T16:59:59.285Z,12.80
2022-10-10T17:02:27.486Z,12.47
2022-10-10T17:04:57.401Z,12.43
2022-10-10T17:07:25.623Z,10.00
2022-10-10T17:09:53.821Z,9.67
2022-10-10T17:12:23.762Z,6.53
2022-10-10T17:14:51.872Z,7.10
2022-10-10T17:17:20.143Z,10.63
2022-10-10T17:19:49.354Z,8.23
2022-10-10T17:22:17.782Z,12.20
2022-10-10T17:24:45.856Z,10.90
2022-10-10T17:27:14.309Z,10.23
2022-10-10T17:29:43.785Z,12.33
2022-10-10T17:32:12.136Z,12.03
2022-10-10T17:34:40.243Z,12.00
2022-10-10T17:37:08.382Z,13.30
2022-10-10T17:39:36.514Z,14.50
2022-10-10T17:42:05.227Z,11.07
2022-10-10T17:44:37.838Z,13.43
2022-10-10T17:47:11.754Z,9.27
2022-10-10T17:49:44.997Z,12.30
2022-10-10T17:52:16.486Z,10.03
2022-10-10T17:54:47.226Z,13.47
2022-10-10T17:57:15.414Z,16.90
2022-10-10T17:59:43.502Z,12.63
2022-10-10T18:02:14.381Z,10.80
2022-10-10T18:04:42.575Z,9.37
2022-10-10T18:07:10.667Z,10.37
2022-10-10T18:09:38.781Z,13.20
2022-10-10T18:12:07.893Z,10.17
2022-10-10T18:14:36.071Z,5.00
2022-10-10T18:17:04.248Z,12.40
2022-10-10T18:19:34.045Z,14.67
2022-10-10T18:22:02.146Z,14.27
2022-10-10T18:24:30.393Z,12.37
2022-10-10T18:26:58.607Z,11.47
2022-10-10T18:29:26.739Z,11.50
2022-10-10T18:31:56.521Z,10.67
2022-10-10T18:34:24.649Z,13.00
2022-10-10T18:36:54.324Z,16.10
2022-10-10T18:39:22.381Z,12.73
2022-10-10T18:41:50.487Z,15.00
2022-10-10T18:44:19.503Z,13.57
2022-10-10T18:46:47.639Z,14.87
2022-10-10T18:49:15.678Z,12.33
2022-10-10T18:51:44.041Z,12.70
2022-10-10T18:54:15.443Z,16.30
2022-10-10T18:56:43.825Z,13.73
2022-10-10T18:59:13.215Z,15.33
2022-10-10T19:01:41.350Z,15.13
2022-10-10T19:04:10.377Z,15.73
2022-10-10T19:06:38.965Z,17.40
2022-10-10T19:09:07.790Z,14.70
2022-10-10T19:11:39.230Z,14.73
2022-10-10T19:14:08.267Z,17.40
2022-10-10T19:16:36.856Z,16.70
2022-10-10T19:19:04.947Z,16.57
2022-10-10T19:21:34.244Z,15.40
2022-10-10T19:24:02.367Z,18.20
2022-10-10T19:26:33.318Z,18.40
2022-10-10T19:29:06.620Z,22.37
2022-10-10T19:31:35.251Z,12.87
2022-10-10T19:34:03.311Z,19.00
2022-10-10T19:36:31.415Z,20.30
2022-10-10T19:39:00.152Z,16.40
2022-10-10T19:41:28.361Z,17.73
2022-10-10T19:43:58.045Z,19.87
2022-10-10T19:46:28.126Z,17.47
2022-10-10T19:48:57.211Z,21.90
2022-10-10T19:51:25.761Z,19.40
2022-10-10T19:53:53.865Z,17.33
2022-10-10T19:56:24.559Z,19.33
2022-10-10T19:58:53.600Z,18.63
2022-10-10T20:01:24.507Z,18.73
2022-10-10T20:03:57.742Z,20.13
2022-10-10T20:06:25.930Z,20.07
2022-10-10T20:08:54.037Z,21.10
2022-10-10T20:11:23.313Z,19.47
2022-10-10T20:13:52.095Z,17.77
2022-10-10T20:16:20.445Z,17.90
2022-10-10T20:18:48.736Z,20.67
2022-10-10T20:21:19.802Z,18.47
2022-10-10T20:23:48.104Z,21.27
2022-10-10T20:26:17.103Z,19.13
2022-10-10T20:28:45.457Z,18.63
2022-10-10T20:31:15.423Z,16.03
2022-10-10T20:33:43.863Z,21.03
2022-10-10T20:36:12.267Z,21.37
2022-10-10T20:38:41.768Z,18.40
2022-10-10T20:41:09.928Z,16.50
2022-10-10T20:43:38.860Z,18.03
2022-10-10T20:46:07.940Z,21.67
2022-10-10T20:48:36.182Z,21.37
2022-10-10T20:51:05.568Z,17.37
2022-10-10T20:53:33.820Z,20.93
2022-10-10T20:56:06.303Z,21.27
2022-10-10T20:58:35.698Z,20.50
2022-10-10T21:01:08.234Z,22.17
2022-10-10T21:03:36.495Z,22.27
2022-10-10T21:06:09.237Z,21.37
2022-10-10T21:08:37.452Z,24.10
2022-10-10T21:11:08.513Z,21.83
2022-10-10T21:13:37.432Z,23.57
2022-10-10T21:16:07.493Z,26.03
2022-10-10T21:18:35.798Z,22.87
2022-10-10T21:21:04.380Z,26.43
2022-10-10T21:23:35.805Z,20.03
2022-10-10T21:26:07.188Z,23.63
2022-10-10T21:28:35.816Z,34.83
2022-10-10T21:31:04.045Z,32.43
2022-10-10T21:33:32.148Z,40.70
2022-10-10T21:36:00.303Z,36.10
2022-10-10T21:38:28.334Z,32.77
2022-10-10T21:40:56.381Z,37.87
2022-10-10T21:43:25.852Z,34.87
2022-10-10T21:45:53.896Z,34.63
2022-10-10T21:48:22.033Z,38.73
2022-10-10T21:50:50.294Z,33.27
2022-10-10T21:53:18.326Z,37.97
2022-10-10T21:55:46.568Z,35.07
2022-10-10T21:58:14.650Z,36.20
2022-10-10T22:00:44.135Z,34.73
2022-10-10T22:03:12.286Z,31.07
2022-10-10T22:05:40.864Z,37.40
2022-10-10T22:08:09.016Z,38.57
2022-10-10T22:10:37.086Z,38.43
2022-10-10T22:13:05.367Z,35.97
2022-10-10T22:15:33.773Z,40.80
2022-10-10T22:18:03.202Z,33.87
2022-10-10T22:20:31.681Z,37.90
2022-10-10T22:22:59.804Z,34.23
2022-10-10T22:25:27.833Z,34.30
2022-10-10T22:27:57.332Z,33.57
2022-10-10T22:30:25.683Z,35.33
2022-10-10T22:32:53.735Z,35.53
2022-10-10T22:35:23.144Z,30.60
2022-10-10T22:37:51.262Z,38.03
2022-10-10T22:40:20.594Z,38.87
2022-10-10T22:42:48.631Z,40.00
2022-10-10T22:45:16.892Z,42.90
2022-10-10T22:47:44.954Z,40.17
2022-10-10T22:50:13.215Z,38.43
2022-10-10T22:52:43.189Z,35.67
2022-10-10T22:55:15.748Z,38.03
2022-10-10T22:57:46.299Z,35.87
2022-10-10T23:00:15.678Z,32.37
2022-10-10T23:02:43.822Z,30.13
2022-10-10T23:05:11.870Z,28.03
2022-10-10T23:07:39.979Z,23.27
2022-10-10T23:10:10.564Z,29.27
2022-10-10T23:12:38.890Z,21.33
2022-10-10T23:15:07.671Z,25.93
2022-10-10T23:17:36.107Z,23.57
2022-10-10T23:20:04.644Z,22.23
2022-10-10T23:22:32.785Z,19.23
2022-10-10T23:25:00.876Z,23.87
2022-10-10T23:27:30.288Z,17.07
2022-10-10T23:29:58.337Z,18.00
2022-10-10T23:32:29.402Z,17.17
2022-10-10T23:34:57.530Z,17.63
2022-10-10T23:37:25.750Z,17.53
2022-10-10T23:39:53.795Z,18.67
2022-10-10T23:42:21.836Z,16.30
2022-10-10T23:44:51.329Z,16.60
2022-10-10T23:47:19.385Z,17.10
2022-10-10T23:49:47.443Z,16.97
2022-10-10T23:52:15.895Z,14.03
2022-10-10T23:54:43.971Z,17.77
2022-10-10T23:57:12.098Z,14.50
2022-10-10T23:59:40.182Z,14.80
